Back to Top

Language: 

My Weather Underground Personal Weather Station Historical Data with Graphs...

Delerius Weather Station Historical Data
Daily Summary for July 10, 2017 Units:  English    Metric   Both
« Previous Day
Next Day »
Daily Weekly Monthly Yearly Custom
  High: Low: Average:
Temperature: 67.1 °F 55.2 °F 61.3 °F
Dew Point: 60.0 °F 50.0 °F 54.8 °F
Humidity: 90 % 68 % 80 %
Wind Speed: 14.0 mph 0.0 mph 4.2 mph
Wind Gust: 23.0 mph - -
Wind:- - WNW
Pressure: 29.81 in 29.72 in -
Precipitation: 0.03 in    
Historical Graphs
 
 
Tabular Data for July 10, 2017
Time Temperature Dew Point Pressure Wind Wind Speed Wind Gust Humidity Rainfall Rate (Hourly) solar Conditions
00:04 63.7 °F 57.4 °F 29.80 in NW 1.0 mph 4.0 mph 80 % 0.00 in 0 W/m2
00:09 63.5 °F 56.5 °F 29.81 in NW 2.0 mph 5.0 mph 78 % 0.00 in 0 W/m2
00:14 63.3 °F 56.0 °F 29.81 in NW 2.0 mph 5.0 mph 77 % 0.00 in 0 W/m2
00:19 63.1 °F 55.8 °F 29.81 in NW 2.0 mph 7.0 mph 77 % 0.00 in 0 W/m2
00:24 63.0 °F 55.3 °F 29.80 in NW 3.0 mph 7.0 mph 76 % 0.00 in 0 W/m2
00:29 62.8 °F 55.1 °F 29.80 in NW 3.0 mph 7.0 mph 76 % 0.00 in 0 W/m2
00:34 62.8 °F 55.1 °F 29.80 in NW 2.0 mph 6.0 mph 76 % 0.00 in 0 W/m2
00:39 62.8 °F 55.1 °F 29.80 in NW 2.0 mph 6.0 mph 76 % 0.00 in 0 W/m2
00:45 62.4 °F 54.4 °F 29.80 in NW 3.0 mph 7.0 mph 75 % 0.00 in 0 W/m2
00:49 62.2 °F 53.1 °F 29.80 in NW 3.0 mph 7.0 mph 72 % 0.00 in 0 W/m2
00:55 62.1 °F 52.9 °F 29.80 in NW 3.0 mph 6.0 mph 72 % 0.00 in 0 W/m2
01:00 61.7 °F 52.6 °F 29.80 in NW 3.0 mph 7.0 mph 72 % 0.00 in 0 W/m2
01:05 61.5 °F 52.4 °F 29.80 in NW 2.0 mph 7.0 mph 72 % 0.00 in 0 W/m2
01:10 61.3 °F 52.6 °F 29.80 in NW 1.0 mph 5.0 mph 73 % 0.00 in 0 W/m2
01:15 61.2 °F 52.4 °F 29.80 in NW 2.0 mph 5.0 mph 73 % 0.00 in 0 W/m2
01:20 61.0 °F 52.3 °F 29.80 in NW 3.0 mph 5.0 mph 73 % 0.00 in 0 W/m2
01:25 60.8 °F 52.5 °F 29.80 in NW 2.0 mph 5.0 mph 74 % 0.00 in 0 W/m2
01:30 60.8 °F 52.5 °F 29.79 in NW 1.0 mph 4.0 mph 74 % 0.00 in 0 W/m2
01:35 60.8 °F 52.8 °F 29.79 in Calm   4.0 mph 75 % 0.00 in 0 W/m2
01:38 60.8 °F 53.2 °F 29.79 in Calm   2.0 mph 76 % 0.00 in 0 W/m2
01:43 60.6 °F 53.0 °F 29.79 in Calm   1.0 mph 76 % 0.00 in 0 W/m2
01:48 60.6 °F 53.4 °F 29.79 in Calm   3.0 mph 77 % 0.00 in 0 W/m2
01:53 60.4 °F 53.2 °F 29.79 in Calm   3.0 mph 77 % 0.00 in 0 W/m2
01:59 60.3 °F 53.4 °F 29.79 in Calm   1.0 mph 78 % 0.00 in 0 W/m2
02:04 60.3 °F 52.7 °F 29.79 in Calm   3.0 mph 76 % 0.00 in 0 W/m2
02:09 60.1 °F 52.5 °F 29.79 in Calm   3.0 mph 76 % 0.00 in 0 W/m2
02:14 60.1 °F 52.8 °F 29.78 in Calm   1.0 mph 77 % 0.00 in 0 W/m2
02:19 60.1 °F 52.8 °F 29.78 in Calm     77 % 0.00 in 0 W/m2
02:24 59.7 °F 52.5 °F 29.78 in Calm   1.0 mph 77 % 0.00 in 0 W/m2
02:29 59.7 °F 52.5 °F 29.78 in Calm   1.0 mph 77 % 0.00 in 0 W/m2
02:34 59.5 °F 52.7 °F 29.78 in Calm   2.0 mph 78 % 0.00 in 0 W/m2
02:39 59.4 °F 52.5 °F 29.78 in NW 1.0 mph 4.0 mph 78 % 0.00 in 0 W/m2
02:44 59.4 °F 52.8 °F 29.78 in NW 2.0 mph 5.0 mph 79 % 0.00 in 0 W/m2
02:49 59.0 °F 52.5 °F 29.78 in NW 3.0 mph 5.0 mph 79 % 0.00 in 0 W/m2
02:54 58.6 °F 52.1 °F 29.78 in NW 2.0 mph 5.0 mph 79 % 0.00 in 0 W/m2
02:59 58.5 °F 52.0 °F 29.78 in NW 1.0 mph 5.0 mph 79 % 0.00 in 0 W/m2
03:04 58.3 °F 52.5 °F 29.78 in NW 1.0 mph 4.0 mph 81 % 0.00 in 0 W/m2
03:09 57.7 °F 52.3 °F 29.78 in NW 1.0 mph 3.0 mph 82 % 0.00 in 0 W/m2
03:14 57.4 °F 52.3 °F 29.78 in Calm     83 % 0.00 in 0 W/m2
03:19 57.0 °F 51.6 °F 29.78 in Calm   2.0 mph 82 % 0.00 in 0 W/m2
03:24 56.7 °F 51.2 °F 29.78 in Calm   2.0 mph 82 % 0.00 in 0 W/m2
03:29 56.5 °F 51.1 °F 29.77 in Calm   1.0 mph 82 % 0.00 in 0 W/m2
03:34 56.5 °F 51.1 °F 29.77 in NW 1.0 mph 2.0 mph 82 % 0.00 in 0 W/m2
03:39 56.1 °F 50.7 °F 29.77 in NW 1.0 mph 5.0 mph 82 % 0.00 in 0 W/m2
03:44 56.1 °F 50.7 °F 29.77 in NW 1.0 mph 5.0 mph 82 % 0.00 in 0 W/m2
03:49 56.3 °F 50.9 °F 29.77 in Calm   3.0 mph 82 % 0.00 in 0 W/m2
03:54 56.5 °F 51.4 °F 29.76 in Calm   1.0 mph 83 % 0.00 in 0 W/m2
03:59 56.3 °F 51.2 °F 29.76 in NW 1.0 mph 5.0 mph 83 % 0.00 in 0 W/m2
04:04 56.1 °F 51.4 °F 29.76 in NW 2.0 mph 5.0 mph 84 % 0.00 in 0 W/m2
04:09 55.9 °F 51.2 °F 29.76 in NW 1.0 mph 5.0 mph 84 % 0.00 in 0 W/m2
04:14 55.9 °F 51.2 °F 29.76 in Calm   5.0 mph 84 % 0.00 in 0 W/m2
04:19 55.9 °F 50.9 °F 29.76 in Calm   4.0 mph 83 % 0.00 in 0 W/m2
04:24 55.8 °F 50.7 °F 29.76 in NW 1.0 mph 5.0 mph 83 % 0.00 in 0 W/m2
04:29 55.8 °F 51.0 °F 29.76 in NW 2.0 mph 6.0 mph 84 % 0.00 in 0 W/m2
04:34 55.8 °F 51.0 °F 29.76 in NW 2.0 mph 6.0 mph 84 % 0.00 in 0 W/m2
04:39 55.8 °F 51.0 °F 29.75 in NW 1.0 mph 5.0 mph 84 % 0.00 in 0 W/m2
04:44 55.8 °F 51.0 °F 29.75 in NW 1.0 mph 5.0 mph 84 % 0.00 in 0 W/m2
04:49 55.8 °F 51.0 °F 29.75 in NW 2.0 mph 6.0 mph 84 % 0.00 in 0 W/m2
04:54 55.8 °F 51.0 °F 29.75 in NW 2.0 mph 6.0 mph 84 % 0.00 in 7 W/m2
04:59 55.8 °F 51.0 °F 29.75 in NW 1.0 mph 4.0 mph 84 % 0.00 in 11 W/m2
05:04 55.6 °F 50.8 °F 29.75 in Calm   2.0 mph 84 % 0.00 in 14 W/m2
05:09 55.6 °F 50.8 °F 29.75 in Calm   1.0 mph 84 % 0.00 in 18 W/m2
05:15 55.4 °F 51.0 °F 29.75 in Calm     85 % 0.00 in 21 W/m2
05:19 55.2 °F 50.8 °F 29.75 in Calm     85 % 0.00 in 23 W/m2
05:25 55.2 °F 50.8 °F 29.75 in Calm     85 % 0.00 in 28 W/m2
05:30 55.2 °F 51.1 °F 29.75 in Calm     86 % 0.00 in 37 W/m2
05:35 55.2 °F 51.1 °F 29.75 in Calm     86 % 0.00 in 47 W/m2
05:40 55.6 °F 51.1 °F 29.75 in Calm   2.0 mph 85 % 0.00 in 58 W/m2
05:45 55.6 °F 51.1 °F 29.76 in Calm   3.0 mph 85 % 0.00 in 63 W/m2
05:50 55.8 °F 51.3 °F 29.76 in Calm   3.0 mph 85 % 0.00 in 62 W/m2
05:55 56.1 °F 51.7 °F 29.76 in Calm   3.0 mph 85 % 0.00 in 56 W/m2
06:00 56.3 °F 51.8 °F 29.76 in Calm   2.0 mph 85 % 0.00 in 49 W/m2
06:05 56.7 °F 52.2 °F 29.75 in Calm   3.0 mph 85 % 0.00 in 47 W/m2
06:10 56.8 °F 52.1 °F 29.75 in Calm   3.0 mph 84 % 0.00 in 51 W/m2
06:15 57.2 °F 52.4 °F 29.75 in Calm   3.0 mph 84 % 0.00 in 56 W/m2
06:20 57.4 °F 52.6 °F 29.75 in NW 1.0 mph 4.0 mph 84 % 0.00 in 63 W/m2
06:25 57.4 °F 52.6 °F 29.75 in NW 1.0 mph 4.0 mph 84 % 0.00 in 70 W/m2
06:30 57.4 °F 52.6 °F 29.75 in Calm   2.0 mph 84 % 0.00 in 77 W/m2
06:35 57.6 °F 52.8 °F 29.75 in Calm     84 % 0.00 in 79 W/m2
06:40 57.6 °F 52.8 °F 29.76 in Calm     84 % 0.00 in 76 W/m2
06:45 57.7 °F 52.9 °F 29.75 in Calm     84 % 0.00 in 54 W/m2
06:50 57.7 °F 52.9 °F 29.75 in Calm   1.0 mph 84 % 0.00 in 44 W/m2
06:55 57.9 °F 53.1 °F 29.75 in Calm   1.0 mph 84 % 0.00 in 40 W/m2
07:00 58.1 °F 53.6 °F 29.75 in Calm     85 % 0.00 in 40 W/m2
07:05 58.3 °F 53.8 °F 29.76 in Calm     85 % 0.00 in 47 W/m2
07:10 58.6 °F 54.5 °F 29.76 in Calm   1.0 mph 86 % 0.00 in 58 W/m2
07:15 58.8 °F 54.6 °F 29.76 in Calm   1.0 mph 86 % 0.00 in 58 W/m2
07:21 59.0 °F 55.1 °F 29.76 in Calm     87 % 0.00 in 67 W/m2
07:26 59.2 °F 55.3 °F 29.76 in Calm   2.0 mph 87 % 0.00 in 74 W/m2
07:31 59.2 °F 55.3 °F 29.76 in Calm   2.0 mph 87 % 0.00 in 83 W/m2
07:36 59.2 °F 55.3 °F 29.76 in Calm     87 % 0.00 in 95 W/m2
07:41 59.4 °F 55.8 °F 29.75 in Calm     88 % 0.00 in 105 W/m2
07:46 59.5 °F 56.3 °F 29.76 in Calm     89 % 0.00 in 97 W/m2
07:51 59.5 °F 56.0 °F 29.76 in Calm   1.0 mph 88 % 0.00 in 91 W/m2
07:56 59.5 °F 56.0 °F 29.76 in Calm   1.0 mph 88 % 0.00 in 100 W/m2
08:01 59.7 °F 56.2 °F 29.76 in Calm   1.0 mph 88 % 0.00 in 98 W/m2
08:06 59.7 °F 56.2 °F 29.76 in Calm     88 % 0.00 in 93 W/m2
08:11 59.7 °F 56.2 °F 29.75 in Calm     88 % 0.00 in 100 W/m2
08:16 59.9 °F 56.3 °F 29.75 in Calm     88 % 0.00 in 98 W/m2
08:21 60.1 °F 56.5 °F 29.75 in Calm     88 % 0.00 in 100 W/m2
08:26 60.3 °F 57.0 °F 29.75 in Calm     89 % 0.00 in 139 W/m2
08:31 60.4 °F 57.2 °F 29.75 in Calm   2.0 mph 89 % 0.00 in 178 W/m2
08:36 60.6 °F 57.4 °F 29.75 in Calm   2.0 mph 89 % 0.00 in 197 W/m2
08:41 61.0 °F 57.7 °F 29.75 in Calm   1.0 mph 89 % 0.00 in 158 W/m2
08:46 61.0 °F 57.4 °F 29.75 in Calm   1.0 mph 88 % 0.00 in 197 W/m2
08:51 61.2 °F 57.6 °F 29.75 in NW 1.0 mph 4.0 mph 88 % 0.00 in 236 W/m2
08:56 61.3 °F 57.8 °F 29.75 in NW 1.0 mph 4.0 mph 88 % 0.00 in 183 W/m2
09:01 61.3 °F 57.4 °F 29.75 in NW 1.0 mph 3.0 mph 87 % 0.00 in 169 W/m2
09:06 61.5 °F 57.6 °F 29.75 in Calm   3.0 mph 87 % 0.00 in 207 W/m2
09:11 61.7 °F 57.8 °F 29.75 in NW 1.0 mph 4.0 mph 87 % 0.00 in 279 W/m2
09:16 62.1 °F 58.1 °F 29.75 in WNW 2.0 mph 6.0 mph 87 % 0.00 in 348 W/m2
09:21 62.2 °F 58.0 °F 29.75 in West 2.0 mph 6.0 mph 86 % 0.00 in 248 W/m2
09:26 62.4 °F 58.2 °F 29.75 in SW 2.0 mph 6.0 mph 86 % 0.00 in 181 W/m2
09:31 62.4 °F 57.8 °F 29.75 in SSW 3.0 mph 6.0 mph 85 % 0.00 in 137 W/m2
09:36 62.4 °F 57.8 °F 29.75 in SSW 2.0 mph 4.0 mph 85 % 0.00 in 120 W/m2
09:41 62.6 °F 58.4 °F 29.75 in SSW 1.0 mph 4.0 mph 86 % 0.00 in 130 W/m2
09:46 62.8 °F 58.5 °F 29.75 in SW 3.0 mph 6.0 mph 86 % 0.00 in 127 W/m2
09:51 62.8 °F 58.5 °F 29.75 in WSW 3.0 mph 6.0 mph 86 % 0.01 in 155 W/m2
09:56 62.8 °F 58.5 °F 29.75 in West 3.0 mph 6.0 mph 86 % 0.01 in 153 W/m2
10:01 62.8 °F 58.9 °F 29.75 in West 3.0 mph 5.0 mph 87 % 0.01 in 153 W/m2
10:06 62.8 °F 58.5 °F 29.75 in WSW 4.0 mph 8.0 mph 86 % 0.01 in 183 W/m2
10:12 62.6 °F 58.7 °F 29.75 in WSW 4.0 mph 8.0 mph 87 % 0.01 in 188 W/m2
10:17 62.6 °F 58.7 °F 29.75 in West 3.0 mph 7.0 mph 87 % 0.01 in 181 W/m2
10:22 62.6 °F 58.7 °F 29.75 in West 3.0 mph 7.0 mph 87 % 0.01 in 223 W/m2
10:27 62.6 °F 59.0 °F 29.75 in West 5.0 mph 10.0 mph 88 % 0.02 in 255 W/m2
10:28 62.4 °F 58.5 °F 29.75 in West 5.0 mph 10.0 mph 87 % 0.02 in 239 W/m2
10:33 62.4 °F 58.8 °F 29.75 in West 6.0 mph 10.0 mph 88 % 0.02 in 232 W/m2
10:38 62.4 °F 58.8 °F 29.75 in WNW 5.0 mph 9.0 mph 88 % 0.02 in 183 W/m2
10:43 62.4 °F 58.8 °F 29.75 in West 5.0 mph 9.0 mph 88 % 0.02 in 165 W/m2
10:48 62.4 °F 58.8 °F 29.75 in West 5.0 mph 8.0 mph 88 % 0.01 in 172 W/m2
10:53 62.4 °F 59.1 °F 29.76 in West 4.0 mph 8.0 mph 89 % 0.01 in 195 W/m2
10:58 62.4 °F 59.1 °F 29.76 in WNW 2.0 mph 5.0 mph 89 % 0.01 in 209 W/m2
11:03 62.6 °F 59.3 °F 29.76 in WNW 3.0 mph 8.0 mph 89 % 0.01 in 207 W/m2
11:08 62.4 °F 59.1 °F 29.76 in West 4.0 mph 8.0 mph 89 % 0.01 in 153 W/m2
11:13 62.4 °F 59.1 °F 29.75 in WNW 5.0 mph 8.0 mph 89 % 0.02 in 169 W/m2
11:18 62.4 °F 59.1 °F 29.76 in WNW 4.0 mph 8.0 mph 89 % 0.02 in 204 W/m2
11:23 62.6 °F 59.6 °F 29.76 in WNW 2.0 mph 5.0 mph 90 % 0.02 in 306 W/m2
11:28 62.8 °F 59.8 °F 29.76 in WNW 3.0 mph 8.0 mph 90 % 0.01 in 186 W/m2
11:33 62.8 °F 59.5 °F 29.76 in WNW 5.0 mph 9.0 mph 89 % 0.01 in 285 W/m2
11:38 62.8 °F 59.5 °F 29.76 in WNW 5.0 mph 9.0 mph 89 % 0.01 in 272 W/m2
11:43 62.8 °F 59.5 °F 29.76 in WNW 5.0 mph 9.0 mph 89 % 0.01 in 239 W/m2
11:48 62.8 °F 59.5 °F 29.75 in WNW 5.0 mph 9.0 mph 89 % 0.01 in 396 W/m2
11:53 63.1 °F 59.8 °F 29.75 in WNW 6.0 mph 11.0 mph 89 % 0.01 in 413 W/m2
11:58 63.3 °F 60.0 °F 29.75 in WNW 6.0 mph 11.0 mph 89 % 0.01 in 339 W/m2
12:03 63.1 °F 59.2 °F 29.75 in WNW 7.0 mph 11.0 mph 87 % 0.01 in 250 W/m2
12:09 63.1 °F 58.9 °F 29.75 in West 8.0 mph 13.0 mph 86 % 0.01 in 232 W/m2
12:13 63.0 °F 58.4 °F 29.75 in West 8.0 mph 13.0 mph 85 % 0.00 in 141 W/m2
12:18 62.8 °F 58.5 °F 29.75 in West 7.0 mph 11.0 mph 86 % 0.00 in 127 W/m2
12:23 62.4 °F 58.2 °F 29.75 in West 6.0 mph 10.0 mph 86 % 0.00 in 174 W/m2
12:29 62.4 °F 58.2 °F 29.75 in West 6.0 mph 9.0 mph 86 % 0.00 in 199 W/m2
12:34 62.4 °F 58.2 °F 29.75 in West 5.0 mph 8.0 mph 86 % 0.00 in 223 W/m2
12:39 62.6 °F 58.4 °F 29.75 in WNW 5.0 mph 8.0 mph 86 % 0.00 in 250 W/m2
12:44 62.8 °F 58.5 °F 29.75 in WNW 5.0 mph 10.0 mph 86 % 0.00 in 255 W/m2
12:49 63.0 °F 58.7 °F 29.75 in WNW 6.0 mph 10.0 mph 86 % 0.00 in 297 W/m2
12:54 63.1 °F 58.2 °F 29.75 in West 7.0 mph 11.0 mph 84 % 0.00 in 322 W/m2
12:59 63.3 °F 58.4 °F 29.75 in West 7.0 mph 11.0 mph 84 % 0.00 in 381 W/m2
13:04 63.7 °F 58.1 °F 29.74 in West 6.0 mph 11.0 mph 82 % 0.00 in 332 W/m2
13:09 64.0 °F 58.1 °F 29.74 in West 7.0 mph 11.0 mph 81 % 0.00 in 380 W/m2
13:15 64.4 °F 58.1 °F 29.74 in West 7.0 mph 11.0 mph 80 % 0.00 in 529 W/m2
13:20 64.9 °F 58.6 °F 29.74 in West 6.0 mph 11.0 mph 80 % 0.00 in 533 W/m2
13:25 65.5 °F 58.4 °F 29.74 in WSW 7.0 mph 11.0 mph 78 % 0.00 in 577 W/m2
13:30 65.8 °F 58.8 °F 29.74 in WSW 6.0 mph 11.0 mph 78 % 0.00 in 520 W/m2
13:35 66.6 °F 58.4 °F 29.74 in West 7.0 mph 13.0 mph 75 % 0.00 in 387 W/m2
13:40 66.7 °F 58.2 °F 29.74 in West 8.0 mph 13.0 mph 74 % 0.00 in 301 W/m2
13:45 66.6 °F 57.6 °F 29.74 in West 8.0 mph 13.0 mph 73 % 0.00 in 323 W/m2
13:50 66.6 °F 58.0 °F 29.74 in West 8.0 mph 13.0 mph 74 % 0.00 in 348 W/m2
13:55 66.6 °F 58.8 °F 29.73 in West 6.0 mph 12.0 mph 76 % 0.00 in 369 W/m2
14:00 66.7 °F 58.6 °F 29.74 in West 6.0 mph 9.0 mph 75 % 0.00 in 318 W/m2
14:05 66.9 °F 58.4 °F 29.73 in West 5.0 mph 9.0 mph 74 % 0.00 in 292 W/m2
14:10 67.1 °F 58.2 °F 29.73 in West 6.0 mph 11.0 mph 73 % 0.00 in 230 W/m2
14:15 67.1 °F 57.8 °F 29.73 in West 7.0 mph 11.0 mph 72 % 0.00 in 262 W/m2
14:20 66.7 °F 57.4 °F 29.73 in West 6.0 mph 9.0 mph 72 % 0.00 in 269 W/m2
14:25 66.6 °F 57.3 °F 29.73 in WSW 6.0 mph 9.0 mph 72 % 0.00 in 274 W/m2
14:30 66.4 °F 56.7 °F 29.73 in WSW 6.0 mph 9.0 mph 71 % 0.00 in 362 W/m2
14:35 66.6 °F 57.3 °F 29.73 in WSW 4.0 mph 9.0 mph 72 % 0.00 in 134 W/m2
14:40 66.6 °F 58.0 °F 29.73 in WSW 3.0 mph 7.0 mph 74 % 0.00 in 58 W/m2
14:45 66.4 °F 57.8 °F 29.73 in West 4.0 mph 8.0 mph 74 % 0.00 in 114 W/m2
14:46 66.4 °F 57.8 °F 29.73 in West 5.0 mph 8.0 mph 74 % 0.00 in 134 W/m2
14:51 66.2 °F 57.7 °F 29.73 in West 7.0 mph 12.0 mph 74 % 0.00 in 218 W/m2
14:56 66.2 °F 57.7 °F 29.73 in West 8.0 mph 12.0 mph 74 % 0.00 in 248 W/m2
15:01 66.2 °F 57.7 °F 29.73 in West 8.0 mph 14.0 mph 74 % 0.00 in 343 W/m2
15:06 66.4 °F 57.5 °F 29.73 in West 9.0 mph 14.0 mph 73 % 0.00 in 325 W/m2
15:11 66.6 °F 57.6 °F 29.73 in WNW 8.0 mph 14.0 mph 73 % 0.00 in 230 W/m2
15:16 66.6 °F 57.3 °F 29.73 in NW 8.0 mph 14.0 mph 72 % 0.00 in 221 W/m2
15:21 66.4 °F 57.1 °F 29.74 in WNW 9.0 mph 15.0 mph 72 % 0.00 in 230 W/m2
15:26 66.0 °F 57.9 °F 29.73 in WNW 9.0 mph 15.0 mph 75 % 0.00 in 171 W/m2
15:31 65.7 °F 57.5 °F 29.73 in WNW 7.0 mph 15.0 mph 75 % 0.00 in 183 W/m2
15:36 65.7 °F 57.9 °F 29.73 in WNW 6.0 mph 11.0 mph 76 % 0.00 in 455 W/m2
15:41 65.8 °F 58.4 °F 29.73 in WNW 6.0 mph 10.0 mph 77 % 0.00 in 378 W/m2
15:46 66.4 °F 58.6 °F 29.72 in WNW 8.0 mph 13.0 mph 76 % 0.00 in 578 W/m2
15:51 66.7 °F 57.8 °F 29.72 in West 9.0 mph 15.0 mph 73 % 0.00 in 313 W/m2
15:56 66.7 °F 57.8 °F 29.72 in West 9.0 mph 15.0 mph 73 % 0.00 in 304 W/m2
16:01 66.7 °F 57.4 °F 29.72 in WNW 9.0 mph 15.0 mph 72 % 0.00 in 241 W/m2
16:06 66.7 °F 57.8 °F 29.72 in West 9.0 mph 15.0 mph 73 % 0.00 in 216 W/m2
16:11 66.7 °F 57.8 °F 29.73 in West 8.0 mph 13.0 mph 73 % 0.00 in 190 W/m2
16:17 66.6 °F 57.3 °F 29.73 in WNW 10.0 mph 20.0 mph 72 % 0.01 in 214 W/m2
16:18 66.4 °F 57.1 °F 29.73 in WNW 10.0 mph 23.0 mph 72 % 0.01 in 195 W/m2
16:23 65.8 °F 56.6 °F 29.73 in WNW 13.0 mph 23.0 mph 72 % 0.01 in 174 W/m2
16:28 65.3 °F 56.4 °F 29.73 in WNW 12.0 mph 20.0 mph 73 % 0.01 in 237 W/m2
16:33 64.8 °F 56.6 °F 29.73 in West 12.0 mph 20.0 mph 75 % 0.01 in 244 W/m2
16:38 64.6 °F 56.8 °F 29.73 in WNW 11.0 mph 19.0 mph 76 % 0.01 in 251 W/m2
16:43 64.2 °F 57.6 °F 29.73 in WNW 10.0 mph 21.0 mph 79 % 0.01 in 244 W/m2
16:48 64.0 °F 57.4 °F 29.73 in West 9.0 mph 21.0 mph 79 % 0.01 in 218 W/m2
16:53 64.0 °F 57.7 °F 29.73 in West 8.0 mph 13.0 mph 80 % 0.01 in 204 W/m2
16:58 63.9 °F 57.2 °F 29.73 in West 8.0 mph 13.0 mph 79 % 0.01 in 181 W/m2
17:03 63.9 °F 57.2 °F 29.73 in WNW 8.0 mph 12.0 mph 79 % 0.01 in 114 W/m2
17:08 63.7 °F 56.7 °F 29.73 in WNW 8.0 mph 13.0 mph 78 % 0.01 in 132 W/m2
17:13 63.7 °F 57.0 °F 29.73 in WNW 7.0 mph 13.0 mph 79 % 0.00 in 139 W/m2
17:18 63.9 °F 57.2 °F 29.73 in WNW 6.0 mph 11.0 mph 79 % 0.00 in 139 W/m2
17:23 63.9 °F 56.9 °F 29.73 in West 7.0 mph 12.0 mph 78 % 0.00 in 118 W/m2
17:28 63.9 °F 56.5 °F 29.73 in West 7.0 mph 13.0 mph 77 % 0.00 in 132 W/m2
17:33 64.0 °F 57.0 °F 29.74 in West 6.0 mph 13.0 mph 78 % 0.00 in 148 W/m2
17:38 64.0 °F 56.3 °F 29.73 in WNW 7.0 mph 14.0 mph 76 % 0.00 in 153 W/m2
17:41 64.0 °F 56.3 °F 29.73 in WNW 7.0 mph 14.0 mph 76 % 0.00 in 134 W/m2
17:46 64.2 °F 56.5 °F 29.73 in WNW 8.0 mph 14.0 mph 76 % 0.00 in 169 W/m2
17:51 64.4 °F 55.9 °F 29.73 in WNW 8.0 mph 15.0 mph 74 % 0.00 in 162 W/m2
17:56 64.6 °F 56.1 °F 29.73 in WNW 9.0 mph 18.0 mph 74 % 0.00 in 183 W/m2
18:01 64.6 °F 56.1 °F 29.73 in WNW 8.0 mph 18.0 mph 74 % 0.00 in 197 W/m2
18:06 64.8 °F 55.5 °F 29.73 in WNW 8.0 mph 15.0 mph 72 % 0.00 in 179 W/m2
18:11 64.9 °F 55.3 °F 29.73 in WNW 10.0 mph 21.0 mph 71 % 0.00 in 262 W/m2
18:16 65.3 °F 55.3 °F 29.73 in WNW 12.0 mph 21.0 mph 70 % 0.00 in 253 W/m2
18:21 65.5 °F 55.4 °F 29.73 in WNW 12.0 mph 19.0 mph 70 % 0.00 in 178 W/m2
18:26 65.1 °F 55.1 °F 29.73 in WNW 12.0 mph 18.0 mph 70 % 0.00 in 153 W/m2
18:31 64.9 °F 54.5 °F 29.73 in WNW 12.0 mph 18.0 mph 69 % 0.00 in 243 W/m2
18:36 64.9 °F 54.9 °F 29.73 in West 13.0 mph 23.0 mph 70 % 0.00 in 334 W/m2
18:41 65.1 °F 55.1 °F 29.73 in West 14.0 mph 23.0 mph 70 % 0.00 in 445 W/m2
18:46 65.3 °F 55.3 °F 29.73 in WNW 14.0 mph 22.0 mph 70 % 0.00 in 323 W/m2
18:51 65.3 °F 55.3 °F 29.74 in WNW 13.0 mph 22.0 mph 70 % 0.00 in 272 W/m2
18:56 65.1 °F 55.1 °F 29.74 in West 12.0 mph 21.0 mph 70 % 0.00 in 294 W/m2
19:01 65.1 °F 54.7 °F 29.74 in West 12.0 mph 21.0 mph 69 % 0.00 in 267 W/m2
19:02 65.1 °F 54.7 °F 29.74 in West 12.0 mph 21.0 mph 69 % 0.00 in 267 W/m2
19:07 64.9 °F 54.5 °F 29.74 in WNW 11.0 mph 20.0 mph 69 % 0.00 in 236 W/m2
19:12 65.1 °F 54.7 °F 29.74 in WNW 11.0 mph 20.0 mph 69 % 0.00 in 283 W/m2
19:17 64.9 °F 54.1 °F 29.74 in West 10.0 mph 18.0 mph 68 % 0.00 in 243 W/m2
19:22 64.6 °F 54.2 °F 29.74 in West 9.0 mph 18.0 mph 69 % 0.00 in 93 W/m2
19:27 64.2 °F 54.2 °F 29.74 in WNW 8.0 mph 12.0 mph 70 % 0.00 in 258 W/m2
19:32 64.0 °F 54.1 °F 29.74 in WNW 8.0 mph 13.0 mph 70 % 0.00 in 128 W/m2
19:37 63.9 °F 53.9 °F 29.74 in WNW 8.0 mph 14.0 mph 70 % 0.00 in 81 W/m2
19:42 63.7 °F 53.7 °F 29.74 in WNW 8.0 mph 15.0 mph 70 % 0.00 in 197 W/m2
19:47 63.7 °F 54.1 °F 29.74 in WNW 8.0 mph 15.0 mph 71 % 0.00 in 156 W/m2
19:52 63.7 °F 54.1 °F 29.75 in WNW 7.0 mph 12.0 mph 71 % 0.00 in 207 W/m2
19:57 63.7 °F 53.7 °F 29.75 in WNW 7.0 mph 14.0 mph 70 % 0.00 in 132 W/m2
20:02 63.7 °F 53.3 °F 29.75 in WNW 7.0 mph 14.0 mph 69 % 0.00 in 62 W/m2
20:07 63.1 °F 52.8 °F 29.75 in WNW 8.0 mph 16.0 mph 69 % 0.00 in 53 W/m2
20:12 62.6 °F 52.7 °F 29.75 in WNW 9.0 mph 16.0 mph 70 % 0.00 in 47 W/m2
20:17 62.2 °F 52.7 °F 29.75 in WNW 8.0 mph 14.0 mph 71 % 0.00 in 46 W/m2
20:22 62.1 °F 52.5 °F 29.75 in WNW 8.0 mph 16.0 mph 71 % 0.00 in 44 W/m2
20:27 61.5 °F 52.0 °F 29.75 in WNW 9.0 mph 16.0 mph 71 % 0.00 in 44 W/m2
20:32 61.3 °F 52.2 °F 29.75 in WNW 8.0 mph 13.0 mph 72 % 0.00 in 42 W/m2
20:37 61.2 °F 52.1 °F 29.76 in WNW 7.0 mph 12.0 mph 72 % 0.00 in 40 W/m2
20:42 60.8 °F 51.7 °F 29.76 in WNW 7.0 mph 12.0 mph 72 % 0.00 in 37 W/m2
20:47 60.4 °F 51.7 °F 29.76 in WNW 6.0 mph 13.0 mph 73 % 0.00 in 32 W/m2
20:52 60.3 °F 51.6 °F 29.76 in WNW 5.0 mph 12.0 mph 73 % 0.00 in 26 W/m2
20:57 60.3 °F 51.9 °F 29.76 in WNW 5.0 mph 12.0 mph 74 % 0.00 in 23 W/m2
21:02 59.9 °F 51.6 °F 29.76 in WNW 6.0 mph 12.0 mph 74 % 0.00 in 19 W/m2
21:07 59.7 °F 51.4 °F 29.76 in WNW 6.0 mph 10.0 mph 74 % 0.00 in 16 W/m2
21:12 59.4 °F 51.1 °F 29.76 in WNW 6.0 mph 11.0 mph 74 % 0.00 in 12 W/m2
21:17 59.2 °F 51.3 °F 29.76 in WNW 8.0 mph 13.0 mph 75 % 0.00 in 9 W/m2
21:22 59.0 °F 51.1 °F 29.76 in WNW 8.0 mph 13.0 mph 75 % 0.00 in 5 W/m2
21:27 58.8 °F 50.9 °F 29.76 in WNW 8.0 mph 12.0 mph 75 % 0.00 in 0 W/m2
21:32 58.6 °F 51.1 °F 29.76 in WNW 8.0 mph 12.0 mph 76 % 0.00 in 0 W/m2
21:37 58.5 °F 50.9 °F 29.76 in WNW 7.0 mph 12.0 mph 76 % 0.00 in 0 W/m2
21:43 58.5 °F 50.9 °F 29.77 in West 7.0 mph 12.0 mph 76 % 0.00 in 0 W/m2
21:48 58.3 °F 50.7 °F 29.77 in West 7.0 mph 12.0 mph 76 % 0.00 in 0 W/m2
21:53 57.9 °F 50.8 °F 29.77 in West 7.0 mph 12.0 mph 77 % 0.00 in 0 W/m2
21:58 57.9 °F 50.8 °F 29.77 in West 7.0 mph 11.0 mph 77 % 0.00 in 0 W/m2
22:03 57.7 °F 50.6 °F 29.77 in West 6.0 mph 10.0 mph 77 % 0.00 in 0 W/m2
22:08 57.6 °F 50.8 °F 29.77 in West 4.0 mph 8.0 mph 78 % 0.00 in 0 W/m2
22:13 57.6 °F 51.1 °F 29.77 in WSW 3.0 mph 7.0 mph 79 % 0.00 in 0 W/m2
22:18 57.4 °F 50.9 °F 29.77 in WSW 3.0 mph 7.0 mph 79 % 0.00 in 0 W/m2
22:23 57.4 °F 50.6 °F 29.78 in WSW 1.0 mph 6.0 mph 78 % 0.00 in 0 W/m2
22:28 57.4 °F 50.6 °F 29.78 in WSW 1.0 mph 5.0 mph 78 % 0.00 in 0 W/m2
22:35 57.2 °F 50.4 °F 29.78 in WSW 1.0 mph 5.0 mph 78 % 0.00 in 0 W/m2
22:40 57.0 °F 50.6 °F 29.78 in WSW 1.0 mph 6.0 mph 79 % 0.00 in 0 W/m2
22:45 57.0 °F 50.6 °F 29.78 in WSW 2.0 mph 7.0 mph 79 % 0.00 in 0 W/m2
22:50 56.8 °F 50.4 °F 29.77 in West 2.0 mph 7.0 mph 79 % 0.00 in 0 W/m2
22:55 56.8 °F 50.4 °F 29.77 in West 3.0 mph 7.0 mph 79 % 0.00 in 0 W/m2
23:00 56.7 °F 50.6 °F 29.77 in West 4.0 mph 7.0 mph 80 % 0.00 in 0 W/m2
23:05 56.5 °F 50.4 °F 29.77 in West 4.0 mph 7.0 mph 80 % 0.00 in 0 W/m2
23:10 56.5 °F 50.4 °F 29.78 in West 2.0 mph 7.0 mph 80 % 0.00 in 0 W/m2
23:15 56.1 °F 50.4 °F 29.78 in West 2.0 mph 7.0 mph 81 % 0.00 in 0 W/m2
23:20 56.1 °F 50.4 °F 29.77 in WSW 2.0 mph 7.0 mph 81 % 0.00 in 0 W/m2
23:25 55.9 °F 50.2 °F 29.78 in WSW 1.0 mph 6.0 mph 81 % 0.00 in 0 W/m2
23:30 55.9 °F 50.2 °F 29.78 in WSW 1.0 mph 6.0 mph 81 % 0.00 in 0 W/m2
23:35 55.9 °F 50.5 °F 29.78 in WSW 1.0 mph 5.0 mph 82 % 0.00 in 0 W/m2
23:40 55.9 °F 50.5 °F 29.78 in WSW 1.0 mph 4.0 mph 82 % 0.00 in 0 W/m2
23:45 55.8 °F 50.3 °F 29.78 in WSW 1.0 mph 5.0 mph 82 % 0.00 in 0 W/m2
23:50 55.6 °F 50.2 °F 29.78 in Calm   5.0 mph 82 % 0.00 in 0 W/m2
23:55 55.4 °F 50.0 °F 29.78 in WSW 1.0 mph 6.0 mph 82 % 0.00 in 0 W/m2
Delerius-Weather
Compliments of Weather Underground - 2.25 mb

Data updates at regular intervals.